sensor_id;sensor_type;location;lat;lon;timestamp;pressure;altitude;pressure_sealevel;temperature;humidity
36664;BME280;53333;51.976;20.144;2022-11-20T00:01:55;100016.88;;;-2.22;52.81
36664;BME280;53333;51.976;20.144;2022-11-20T00:04:28;100015.97;;;-2.22;52.74
36664;BME280;53333;51.976;20.144;2022-11-20T00:07:02;100015.97;;;-2.24;52.86
36664;BME280;53333;51.976;20.144;2022-11-20T00:09:36;100007.25;;;-2.24;52.76
36664;BME280;53333;51.976;20.144;2022-11-20T00:12:10;100000.28;;;-2.24;53.02
36664;BME280;53333;51.976;20.144;2022-11-20T00:14:44;100001.16;;;-2.28;52.90
36664;BME280;53333;51.976;20.144;2022-11-20T00:17:17;99997.66;;;-2.28;52.94
36664;BME280;53333;51.976;20.144;2022-11-20T00:19:51;100002.88;;;-2.30;53.09
36664;BME280;53333;51.976;20.144;2022-11-20T00:22:24;99999.41;;;-2.32;53.09
36664;BME280;53333;51.976;20.144;2022-11-20T00:24:58;99995.06;;;-2.34;53.00
36664;BME280;53333;51.976;20.144;2022-11-20T00:27:33;99994.16;;;-2.37;53.09
36664;BME280;53333;51.976;20.144;2022-11-20T00:30:09;100005.53;;;-2.36;53.28
36664;BME280;53333;51.976;20.144;2022-11-20T00:32:46;99998.53;;;-2.35;53.44
36664;BME280;53333;51.976;20.144;2022-11-20T00:35:19;99988.94;;;-2.37;53.17
36664;BME280;53333;51.976;20.144;2022-11-20T00:37:53;99995.06;;;-2.33;53.17
36664;BME280;53333;51.976;20.144;2022-11-20T00:40:26;99995.91;;;-2.35;53.37
36664;BME280;53333;51.976;20.144;2022-11-20T00:43:01;100001.16;;;-2.37;53.45
36664;BME280;53333;51.976;20.144;2022-11-20T00:45:35;100002.00;;;-2.38;53.50
36664;BME280;53333;51.976;20.144;2022-11-20T00:48:12;100002.00;;;-2.37;53.49
36664;BME280;53333;51.976;20.144;2022-11-20T00:50:45;100006.38;;;-2.32;53.37
36664;BME280;53333;51.976;20.144;2022-11-20T00:53:19;99999.41;;;-2.32;53.25
36664;BME280;53333;51.976;20.144;2022-11-20T00:55:54;99996.78;;;-2.32;53.43
36664;BME280;53333;51.976;20.144;2022-11-20T00:58:32;99996.78;;;-2.30;53.57
36664;BME280;53333;51.976;20.144;2022-11-20T01:01:07;99995.03;;;-2.28;53.50
36664;BME280;53333;51.976;20.144;2022-11-20T01:03:44;99995.94;;;-2.28;53.56
36664;BME280;53333;51.976;20.144;2022-11-20T01:06:19;99998.53;;;-2.28;53.66
36664;BME280;53333;51.976;20.144;2022-11-20T01:08:54;99986.31;;;-2.29;53.86
36664;BME280;53333;51.976;20.144;2022-11-20T01:11:29;99995.94;;;-2.28;53.79
36664;BME280;53333;51.976;20.144;2022-11-20T01:14:07;99987.19;;;-2.28;53.88
36664;BME280;53333;51.976;20.144;2022-11-20T01:16:43;99990.69;;;-2.29;53.86
36664;BME280;53333;51.976;20.144;2022-11-20T01:19:19;99990.69;;;-2.32;54.05
36664;BME280;53333;51.976;20.144;2022-11-20T01:21:54;99977.59;;;-2.39;54.34
36664;BME280;53333;51.976;20.144;2022-11-20T01:24:27;99981.06;;;-2.44;54.17
36664;BME280;53333;51.976;20.144;2022-11-20T01:27:01;99993.28;;;-2.46;54.52
36664;BME280;53333;51.976;20.144;2022-11-20T01:29:36;99980.19;;;-2.49;54.55
36664;BME280;53333;51.976;20.144;2022-11-20T01:32:09;99981.06;;;-2.52;54.83
36664;BME280;53333;51.976;20.144;2022-11-20T01:34:43;99969.72;;;-2.52;54.61
36664;BME280;53333;51.976;20.144;2022-11-20T01:37:17;99969.72;;;-2.56;55.01
36664;BME280;53333;51.976;20.144;2022-11-20T01:39:51;99978.44;;;-2.57;54.86
36664;BME280;53333;51.976;20.144;2022-11-20T01:42:24;99976.69;;;-2.59;54.80
36664;BME280;53333;51.976;20.144;2022-11-20T01:48:42;99970.59;;;-2.64;54.86
36664;BME280;53333;51.976;20.144;2022-11-20T01:51:23;99979.28;;;-2.68;55.13
36664;BME280;53333;51.976;20.144;2022-11-20T01:54:03;99964.47;;;-2.71;55.19
36664;BME280;53333;51.976;20.144;2022-11-20T01:56:40;99966.19;;;-2.75;55.26
36664;BME280;53333;51.976;20.144;2022-11-20T01:59:18;99963.56;;;-2.76;55.45
36664;BME280;53333;51.976;20.144;2022-11-20T02:01:53;99975.78;;;-2.77;55.20
36664;BME280;53333;51.976;20.144;2022-11-20T02:04:28;99971.44;;;-2.68;54.58
36664;BME280;53333;51.976;20.144;2022-11-20T02:07:02;99981.00;;;-2.75;54.75
36664;BME280;53333;51.976;20.144;2022-11-20T02:09:37;99982.78;;;-2.74;54.90
36664;BME280;53333;51.976;20.144;2022-11-20T02:12:10;99995.84;;;-2.74;54.95
36664;BME280;53333;51.976;20.144;2022-11-20T02:15:05;99986.22;;;-2.77;55.09
36664;BME280;53333;51.976;20.144;2022-11-20T02:17:37;99987.09;;;-2.78;55.05
36664;BME280;53333;51.976;20.144;2022-11-20T02:20:13;99982.75;;;-2.80;55.20
36664;BME280;53333;51.976;20.144;2022-11-20T02:22:52;99980.13;;;-2.83;55.46
36664;BME280;53333;51.976;20.144;2022-11-20T02:25:30;99986.19;;;-2.87;55.48
36664;BME280;53333;51.976;20.144;2022-11-20T02:28:06;99982.69;;;-2.94;55.56
36664;BME280;53333;51.976;20.144;2022-11-20T02:30:39;99985.28;;;-3.02;55.50
36664;BME280;53333;51.976;20.144;2022-11-20T02:33:12;99994.84;;;-3.08;55.74
36664;BME280;53333;51.976;20.144;2022-11-20T02:35:46;99994.81;;;-3.15;55.86
36664;BME280;53333;51.976;20.144;2022-11-20T02:38:20;99977.38;;;-3.20;56.04
36664;BME280;53333;51.976;20.144;2022-11-20T02:40:55;99985.22;;;-3.23;56.06
36664;BME280;53333;51.976;20.144;2022-11-20T02:43:29;99984.31;;;-3.29;56.22
36664;BME280;53333;51.976;20.144;2022-11-20T02:46:02;99985.16;;;-3.33;56.24
36664;BME280;53333;51.976;20.144;2022-11-20T02:48:36;99987.72;;;-3.39;56.29
36664;BME280;53333;51.976;20.144;2022-11-20T02:51:09;99974.66;;;-3.43;56.20
36664;BME280;53333;51.976;20.144;2022-11-20T02:53:43;99972.91;;;-3.48;56.25
36664;BME280;53333;51.976;20.144;2022-11-20T02:56:18;99976.38;;;-3.49;56.39
36664;BME280;53333;51.976;20.144;2022-11-20T02:58:51;99969.34;;;-3.54;56.44
36664;BME280;53333;51.976;20.144;2022-11-20T03:01:25;99973.72;;;-3.56;56.65
36664;BME280;53333;51.976;20.144;2022-11-20T03:03:59;99977.19;;;-3.54;56.57
36664;BME280;53333;51.976;20.144;2022-11-20T03:06:33;99971.09;;;-3.55;56.55
36664;BME280;53333;51.976;20.144;2022-11-20T03:09:06;99965.84;;;-3.58;56.77
36664;BME280;53333;51.976;20.144;2022-11-20T03:11:41;99971.06;;;-3.62;56.50
36664;BME280;53333;51.976;20.144;2022-11-20T03:14:15;99962.34;;;-3.65;56.74
36664;BME280;53333;51.976;20.144;2022-11-20T03:16:48;99958.84;;;-3.70;56.55
36664;BME280;53333;51.976;20.144;2022-11-20T03:19:22;99955.34;;;-3.75;56.85
36664;BME280;53333;51.976;20.144;2022-11-20T03:21:56;99964.84;;;-3.80;56.77
36664;BME280;53333;51.976;20.144;2022-11-20T03:24:29;99960.50;;;-3.84;57.08
36664;BME280;53333;51.976;20.144;2022-11-20T03:27:04;99964.84;;;-3.88;57.10
36664;BME280;53333;51.976;20.144;2022-11-20T03:29:38;99967.41;;;-3.91;57.03
36664;BME280;53333;51.976;20.144;2022-11-20T03:32:11;99965.69;;;-3.89;57.08
36664;BME280;53333;51.976;20.144;2022-11-20T03:34:45;99966.53;;;-3.91;57.00
36664;BME280;53333;51.976;20.144;2022-11-20T03:37:18;99970.00;;;-3.92;57.29
36664;BME280;53333;51.976;20.144;2022-11-20T03:39:51;99975.25;;;-3.92;57.28
36664;BME280;53333;51.976;20.144;2022-11-20T03:42:26;99981.31;;;-3.92;57.15
36664;BME280;53333;51.976;20.144;2022-11-20T03:45:18;99975.25;;;-3.92;57.28
36664;BME280;53333;51.976;20.144;2022-11-20T03:47:52;99971.81;;;-3.82;56.50
36664;BME280;53333;51.976;20.144;2022-11-20T03:50:25;99970.88;;;-3.93;56.70
36664;BME280;53333;51.976;20.144;2022-11-20T03:52:59;99963.03;;;-3.95;56.88
36664;BME280;53333;51.976;20.144;2022-11-20T03:55:32;99975.19;;;-3.97;57.02
36664;BME280;53333;51.976;20.144;2022-11-20T03:58:07;99969.97;;;-3.98;57.15
36664;BME280;53333;51.976;20.144;2022-11-20T04:00:41;99966.44;;;-4.01;57.37
36664;BME280;53333;51.976;20.144;2022-11-20T04:03:14;99968.19;;;-4.03;57.39
36664;BME280;53333;51.976;20.144;2022-11-20T04:05:48;99971.69;;;-4.04;57.54
36664;BME280;53333;51.976;20.144;2022-11-20T04:08:21;99976.00;;;-4.04;57.52
36664;BME280;53333;51.976;20.144;2022-11-20T04:10:55;99976.00;;;-4.03;57.62
36664;BME280;53333;51.976;20.144;2022-11-20T04:13:30;99979.50;;;-4.04;57.68
36664;BME280;53333;51.976;20.144;2022-11-20T04:16:04;99987.31;;;-4.02;57.76
36664;BME280;53333;51.976;20.144;2022-11-20T04:18:37;99983.00;;;-4.00;57.71
36664;BME280;53333;51.976;20.144;2022-11-20T04:21:11;99985.63;;;-4.00;57.71
36664;BME280;53333;51.976;20.144;2022-11-20T04:23:44;99973.50;;;-3.90;57.17
36664;BME280;53333;51.976;20.144;2022-11-20T04:26:19;99969.03;;;-4.02;57.44
36664;BME280;53333;51.976;20.144;2022-11-20T04:28:54;99964.69;;;-4.06;57.71
36664;BME280;53333;51.976;20.144;2022-11-20T04:31:29;99969.88;;;-4.11;57.85
36664;BME280;53333;51.976;20.144;2022-11-20T04:34:04;99963.78;;;-4.13;57.80
36664;BME280;53333;51.976;20.144;2022-11-20T04:36:38;99966.34;;;-4.16;57.97
36664;BME280;53333;51.976;20.144;2022-11-20T04:39:13;99961.13;;;-4.17;57.93
36664;BME280;53333;51.976;20.144;2022-11-20T04:41:47;99968.06;;;-4.20;58.14
36664;BME280;53333;51.976;20.144;2022-11-20T04:44:42;99965.44;;;-4.23;58.37
36664;BME280;53333;51.976;20.144;2022-11-20T04:47:15;99961.06;;;-4.25;58.12
36664;BME280;53333;51.976;20.144;2022-11-20T04:49:49;99956.69;;;-4.25;58.24
36664;BME280;53333;51.976;20.144;2022-11-20T04:52:23;99954.06;;;-4.29;58.09
36664;BME280;53333;51.976;20.144;2022-11-20T04:54:56;99947.06;;;-4.35;58.47
36664;BME280;53333;51.976;20.144;2022-11-20T04:57:30;99947.88;;;-4.39;58.40
36664;BME280;53333;51.976;20.144;2022-11-20T05:00:06;99942.63;;;-4.44;58.47
36664;BME280;53333;51.976;20.144;2022-11-20T05:02:40;99943.47;;;-4.48;58.73
36664;BME280;53333;51.976;20.144;2022-11-20T05:05:13;99935.66;;;-4.49;58.65
36664;BME280;53333;51.976;20.144;2022-11-20T05:07:47;99942.59;;;-4.51;58.67
36664;BME280;53333;51.976;20.144;2022-11-20T05:10:21;99936.47;;;-4.53;58.85
36664;BME280;53333;51.976;20.144;2022-11-20T05:12:54;99933.00;;;-4.52;58.80
36664;BME280;53333;51.976;20.144;2022-11-20T05:15:29;99935.59;;;-4.54;58.88
36664;BME280;53333;51.976;20.144;2022-11-20T05:18:03;99926.91;;;-4.56;58.87
36664;BME280;53333;51.976;20.144;2022-11-20T05:20:36;99926.00;;;-4.57;59.24
36664;BME280;53333;51.976;20.144;2022-11-20T05:23:10;99930.38;;;-4.56;58.88
36664;BME280;53333;51.976;20.144;2022-11-20T05:25:43;99933.81;;;-4.57;58.86
36664;BME280;53333;51.976;20.144;2022-11-20T05:28:17;99935.56;;;-4.57;58.84
36664;BME280;53333;51.976;20.144;2022-11-20T05:30:52;99935.56;;;-4.59;58.90
36664;BME280;53333;51.976;20.144;2022-11-20T05:33:25;99925.97;;;-4.61;59.10
36664;BME280;53333;51.976;20.144;2022-11-20T05:35:59;99932.09;;;-4.59;59.15
36664;BME280;53333;51.976;20.144;2022-11-20T05:38:33;99923.34;;;-4.61;59.26
36664;BME280;53333;51.976;20.144;2022-11-20T05:41:06;99917.38;;;-4.51;58.54
36664;BME280;53333;51.976;20.144;2022-11-20T05:43:42;99918.09;;;-4.64;58.78
36664;BME280;53333;51.976;20.144;2022-11-20T05:46:18;99911.97;;;-4.69;59.04
36664;BME280;53333;51.976;20.144;2022-11-20T05:48:59;99910.22;;;-4.73;59.03
36664;BME280;53333;51.976;20.144;2022-11-20T05:51:33;99905.84;;;-4.76;58.99
36664;BME280;53333;51.976;20.144;2022-11-20T05:54:06;99910.19;;;-4.78;59.50
36664;BME280;53333;51.976;20.144;2022-11-20T05:56:41;99914.50;;;-4.80;59.48
36664;BME280;53333;51.976;20.144;2022-11-20T05:59:14;99917.09;;;-4.82;59.45
36664;BME280;53333;51.976;20.144;2022-11-20T06:01:49;99919.72;;;-4.80;59.50
36664;BME280;53333;51.976;20.144;2022-11-20T06:04:25;99922.31;;;-4.79;59.59
36664;BME280;53333;51.976;20.144;2022-11-20T06:06:58;99918.03;;;-4.77;59.58
36664;BME280;53333;51.976;20.144;2022-11-20T06:09:32;99914.53;;;-4.74;59.69
36664;BME280;53333;51.976;20.144;2022-11-20T06:12:06;99914.56;;;-4.71;59.52
36664;BME280;53333;51.976;20.144;2022-11-20T06:14:39;99917.22;;;-4.68;59.69
36664;BME280;53333;51.976;20.144;2022-11-20T06:17:14;99919.84;;;-4.66;59.69
36664;BME280;53333;51.976;20.144;2022-11-20T06:19:48;99926.81;;;-4.65;59.78
36664;BME280;53333;51.976;20.144;2022-11-20T06:22:21;99920.72;;;-4.63;59.64
36664;BME280;53333;51.976;20.144;2022-11-20T06:24:55;99922.50;;;-4.60;59.76
36664;BME280;53333;51.976;20.144;2022-11-20T06:27:28;99920.81;;;-4.55;59.62
36664;BME280;53333;51.976;20.144;2022-11-20T06:30:02;99922.56;;;-4.52;59.74
36664;BME280;53333;51.976;20.144;2022-11-20T06:32:37;99919.13;;;-4.50;59.87
36664;BME280;53333;51.976;20.144;2022-11-20T06:35:11;99922.66;;;-4.45;59.85
36664;BME280;53333;51.976;20.144;2022-11-20T06:37:44;99919.19;;;-4.41;59.71
36664;BME280;53333;51.976;20.144;2022-11-20T06:40:18;99920.97;;;-4.36;59.89
36664;BME280;53333;51.976;20.144;2022-11-20T06:42:53;99916.66;;;-4.31;59.92
36664;BME280;53333;51.976;20.144;2022-11-20T06:45:27;99912.31;;;-4.28;59.71
36664;BME280;53333;51.976;20.144;2022-11-20T06:48:02;99909.75;;;-4.25;59.87
36664;BME280;53333;51.976;20.144;2022-11-20T06:50:37;99917.56;;;-4.25;59.85
36664;BME280;53333;51.976;20.144;2022-11-20T06:53:10;99913.25;;;-4.23;59.96
36664;BME280;53333;51.976;20.144;2022-11-20T06:55:44;99910.66;;;-4.18;59.95
36664;BME280;53333;51.976;20.144;2022-11-20T06:58:18;99918.50;;;-4.16;60.06
36664;BME280;53333;51.976;20.144;2022-11-20T07:00:52;99911.59;;;-4.13;60.20
36664;BME280;53333;51.976;20.144;2022-11-20T07:03:27;99911.63;;;-4.08;60.13
36664;BME280;53333;51.976;20.144;2022-11-20T07:06:01;99912.53;;;-4.02;60.22
36664;BME280;53333;51.976;20.144;2022-11-20T07:08:35;99908.22;;;-3.95;60.11
36664;BME280;53333;51.976;20.144;2022-11-20T07:11:11;99908.25;;;-3.87;59.97
36664;BME280;53333;51.976;20.144;2022-11-20T07:13:45;99900.50;;;-3.76;59.84
36664;BME280;53333;51.976;20.144;2022-11-20T07:16:19;99900.59;;;-3.53;59.65
36664;BME280;53333;51.976;20.144;2022-11-20T07:18:54;99907.66;;;-3.28;59.59
36664;BME280;53333;51.976;20.144;2022-11-20T07:21:28;99898.19;;;-2.95;59.17
36664;BME280;53333;51.976;20.144;2022-11-20T07:24:01;99886.00;;;-2.48;58.51
36664;BME280;53333;51.976;20.144;2022-11-20T07:26:35;99886.81;;;-1.90;57.73
36664;BME280;53333;51.976;20.144;2022-11-20T07:29:08;99875.25;;;-1.24;56.99
36664;BME280;53333;51.976;20.144;2022-11-20T07:31:42;99878.28;;;-0.59;56.07
36664;BME280;53333;51.976;20.144;2022-11-20T07:34:17;99866.28;;;0.13;55.14
36664;BME280;53333;51.976;20.144;2022-11-20T07:36:51;99872.47;;;0.82;53.89
36664;BME280;53333;51.976;20.144;2022-11-20T07:39:25;99874.06;;;1.51;52.97
36664;BME280;53333;51.976;20.144;2022-11-20T07:41:58;99866.56;;;2.26;52.13
36664;BME280;53333;51.976;20.144;2022-11-20T07:44:32;99869.34;;;3.04;51.08
36664;BME280;53333;51.976;20.144;2022-11-20T07:47:05;99861.28;;;3.84;49.79
36664;BME280;53333;51.976;20.144;2022-11-20T07:49:40;99849.69;;;4.54;48.59
36664;BME280;53333;51.976;20.144;2022-11-20T07:52:14;99846.38;;;5.05;47.46
36664;BME280;53333;51.976;20.144;2022-11-20T07:54:47;99847.47;;;5.55;46.67
36664;BME280;53333;51.976;20.144;2022-11-20T07:57:21;99834.56;;;5.97;45.93
36664;BME280;53333;51.976;20.144;2022-11-20T07:59:59;99837.00;;;6.29;45.11
36664;BME280;53333;51.976;20.144;2022-11-20T08:02:42;99837.00;;;6.76;44.20
36664;BME280;53333;51.976;20.144;2022-11-20T08:05:17;99832.81;;;7.16;43.08
36664;BME280;53333;51.976;20.144;2022-11-20T08:07:51;99825.31;;;7.48;42.54
36664;BME280;53333;51.976;20.144;2022-11-20T08:10:24;99827.53;;;7.59;41.93
36664;BME280;53333;51.976;20.144;2022-11-20T08:12:58;99819.56;;;7.59;41.72
36664;BME280;53333;51.976;20.144;2022-11-20T08:15:50;99827.34;;;7.63;41.25
36664;BME280;53333;51.976;20.144;2022-11-20T08:18:23;99840.50;;;7.67;40.90
36664;BME280;53333;51.976;20.144;2022-11-20T08:21:05;99822.28;;;7.57;40.86
36664;BME280;53333;51.976;20.144;2022-11-20T08:23:38;99827.03;;;7.71;40.55
36664;BME280;53333;51.976;20.144;2022-11-20T08:26:12;99824.19;;;7.76;40.36
36664;BME280;53333;51.976;20.144;2022-11-20T08:28:46;99826.91;;;7.74;40.11
36664;BME280;53333;51.976;20.144;2022-11-20T08:31:19;99814.94;;;8.26;39.37
36664;BME280;53333;51.976;20.144;2022-11-20T08:33:53;99817.75;;;9.00;38.42
36664;BME280;53333;51.976;20.144;2022-11-20T08:36:28;99806.75;;;9.79;37.10
36664;BME280;53333;51.976;20.144;2022-11-20T08:39:05;99804.28;;;10.61;36.12
36664;BME280;53333;51.976;20.144;2022-11-20T08:41:38;99796.38;;;11.39;34.87
36664;BME280;53333;51.976;20.144;2022-11-20T08:44:12;99790.22;;;12.13;34.08
36664;BME280;53333;51.976;20.144;2022-11-20T08:46:45;99791.56;;;12.78;33.03
36664;BME280;53333;51.976;20.144;2022-11-20T08:49:19;99796.81;;;13.36;32.03
36664;BME280;53333;51.976;20.144;2022-11-20T08:51:56;99782.22;;;13.80;30.96
36664;BME280;53333;51.976;20.144;2022-11-20T08:54:38;99784.75;;;14.22;30.25
36664;BME280;53333;51.976;20.144;2022-11-20T08:57:12;99783.13;;;14.58;29.95
36664;BME280;53333;51.976;20.144;2022-11-20T08:59:45;99774.81;;;14.86;29.08
36664;BME280;53333;51.976;20.144;2022-11-20T09:02:37;99771.41;;;15.33;28.19
36664;BME280;53333;51.976;20.144;2022-11-20T09:05:10;99767.56;;;15.72;27.79
36664;BME280;53333;51.976;20.144;2022-11-20T09:07:45;99765.75;;;16.08;29.44
36664;BME280;53333;51.976;20.144;2022-11-20T09:10:19;99758.66;;;16.30;27.55
36664;BME280;53333;51.976;20.144;2022-11-20T09:12:55;99762.72;;;16.47;26.66
36664;BME280;53333;51.976;20.144;2022-11-20T09:15:29;99763.31;;;16.62;25.97
36664;BME280;53333;51.976;20.144;2022-11-20T09:18:03;99754.84;;;16.78;25.51
36664;BME280;53333;51.976;20.144;2022-11-20T09:20:36;99761.72;;;16.93;25.27
36664;BME280;53333;51.976;20.144;2022-11-20T09:23:12;99762.09;;;17.00;24.79
36664;BME280;53333;51.976;20.144;2022-11-20T09:25:45;99763.28;;;17.07;24.12
36664;BME280;53333;51.976;20.144;2022-11-20T09:28:19;99764.50;;;17.14;23.91
36664;BME280;53333;51.976;20.144;2022-11-20T09:30:52;99753.47;;;17.50;25.39
36664;BME280;53333;51.976;20.144;2022-11-20T09:33:26;99757.84;;;17.30;23.86
36664;BME280;53333;51.976;20.144;2022-11-20T09:36:00;99746.38;;;17.37;23.62
36664;BME280;53333;51.976;20.144;2022-11-20T09:38:35;99749.16;;;17.58;23.08
36664;BME280;53333;51.976;20.144;2022-11-20T09:41:23;99740.66;;;17.63;22.96
36664;BME280;53333;51.976;20.144;2022-11-20T09:44:10;99751.13;;;17.77;22.56
36664;BME280;53333;51.976;20.144;2022-11-20T09:46:55;99749.00;;;17.92;22.14
36664;BME280;53333;51.976;20.144;2022-11-20T09:49:42;99747.13;;;18.14;21.95
36664;BME280;53333;51.976;20.144;2022-11-20T09:52:25;99756.06;;;18.36;21.70
36664;BME280;53333;51.976;20.144;2022-11-20T09:55:07;99753.41;;;18.45;21.26
36664;BME280;53333;51.976;20.144;2022-11-20T09:57:46;99745.88;;;18.49;21.27
36664;BME280;53333;51.976;20.144;2022-11-20T10:00:20;99756.06;;;18.66;21.00
36664;BME280;53333;51.976;20.144;2022-11-20T10:03:01;99753.25;;;18.78;20.34
36664;BME280;53333;51.976;20.144;2022-11-20T10:05:41;99751.78;;;18.64;20.30
36664;BME280;53333;51.976;20.144;2022-11-20T10:08:19;99749.13;;;18.74;20.54
36664;BME280;53333;51.976;20.144;2022-11-20T10:11:02;99763.28;;;18.97;20.17
36664;BME280;53333;51.976;20.144;2022-11-20T10:13:47;99755.72;;;18.91;20.18
36664;BME280;53333;51.976;20.144;2022-11-20T10:16:28;99753.09;;;18.79;20.00
36664;BME280;53333;51.976;20.144;2022-11-20T10:19:24;99755.03;;;18.98;19.91
36664;BME280;53333;51.976;20.144;2022-11-20T10:22:09;99756.06;;;19.07;20.26
36664;BME280;53333;51.976;20.144;2022-11-20T10:24:54;99751.09;;;19.12;20.31
36664;BME280;53333;51.976;20.144;2022-11-20T10:27:55;99745.13;;;19.09;20.14
36664;BME280;53333;51.976;20.144;2022-11-20T10:30:35;99742.84;;;18.42;20.32
36664;BME280;53333;51.976;20.144;2022-11-20T10:33:15;99743.63;;;17.60;20.58
36664;BME280;53333;51.976;20.144;2022-11-20T10:35:54;99732.94;;;16.60;21.40
36664;BME280;53333;51.976;20.144;2022-11-20T10:38:33;99729.97;;;15.71;22.19
36664;BME280;53333;51.976;20.144;2022-11-20T10:41:15;99734.63;;;14.72;22.92
36664;BME280;53333;51.976;20.144;2022-11-20T10:44:05;99731.47;;;13.77;24.04
36664;BME280;53333;51.976;20.144;2022-11-20T10:46:44;99739.00;;;12.90;25.05
36664;BME280;53333;51.976;20.144;2022-11-20T10:49:19;99745.97;;;12.22;25.81
36664;BME280;53333;51.976;20.144;2022-11-20T10:52:01;99732.72;;;11.90;26.24
36664;BME280;53333;51.976;20.144;2022-11-20T10:54:42;99737.97;;;11.61;26.48
36664;BME280;53333;51.976;20.144;2022-11-20T10:57:23;99734.13;;;11.21;27.01
36664;BME280;53333;51.976;20.144;2022-11-20T11:00:05;99736.75;;;11.06;27.31
36664;BME280;53333;51.976;20.144;2022-11-20T11:02:41;99727.03;;;11.36;27.18
36664;BME280;53333;51.976;20.144;2022-11-20T11:05:31;99726.81;;;11.99;26.40
36664;BME280;53333;51.976;20.144;2022-11-20T11:08:10;99723.09;;;12.45;26.11
36664;BME280;53333;51.976;20.144;2022-11-20T11:10:50;99728.81;;;13.22;25.62
36664;BME280;53333;51.976;20.144;2022-11-20T11:13:26;99710.75;;;13.92;24.66
36664;BME280;53333;51.976;20.144;2022-11-20T11:16:03;99703.72;;;14.53;24.32
36664;BME280;53333;51.976;20.144;2022-11-20T11:18:36;99695.09;;;15.22;23.64
36664;BME280;53333;51.976;20.144;2022-11-20T11:21:10;99696.16;;;15.91;23.42
36664;BME280;53333;51.976;20.144;2022-11-20T11:23:43;99702.53;;;16.35;22.88
36664;BME280;53333;51.976;20.144;2022-11-20T11:26:20;99701.56;;;16.36;22.75
36664;BME280;53333;51.976;20.144;2022-11-20T11:28:55;99698.88;;;16.25;22.27
36664;BME280;53333;51.976;20.144;2022-11-20T11:31:32;99700.44;;;16.05;22.44
36664;BME280;53333;51.976;20.144;2022-11-20T11:34:08;99691.53;;;16.15;22.47
36664;BME280;53333;51.976;20.144;2022-11-20T11:36:52;99696.06;;;16.49;21.67
36664;BME280;53333;51.976;20.144;2022-11-20T11:39:32;99688.41;;;16.88;21.91
36664;BME280;53333;51.976;20.144;2022-11-20T11:42:08;99683.63;;;17.24;21.05
36664;BME280;53333;51.976;20.144;2022-11-20T11:44:47;99678.41;;;17.65;20.95
36664;BME280;53333;51.976;20.144;2022-11-20T11:47:45;99686.69;;;18.15;20.58
36664;BME280;53333;51.976;20.144;2022-11-20T11:50:21;99672.72;;;18.50;19.88
36664;BME280;53333;51.976;20.144;2022-11-20T11:53:08;99686.06;;;18.73;19.55
36664;BME280;53333;51.976;20.144;2022-11-20T11:55:46;99683.56;;;19.01;19.32
36664;BME280;53333;51.976;20.144;2022-11-20T11:58:34;99675.16;;;19.23;19.17
36664;BME280;53333;51.976;20.144;2022-11-20T12:01:21;99667.06;;;19.23;18.91
36664;BME280;53333;51.976;20.144;2022-11-20T12:04:04;99668.34;;;19.19;18.83
36664;BME280;53333;51.976;20.144;2022-11-20T12:06:43;99667.06;;;19.14;18.82
36664;BME280;53333;51.976;20.144;2022-11-20T12:09:26;99654.22;;;19.16;18.76
36664;BME280;53333;51.976;20.144;2022-11-20T12:12:11;99658.63;;;19.46;18.54
36664;BME280;53333;51.976;20.144;2022-11-20T12:15:06;99658.91;;;19.53;18.73
36664;BME280;53333;51.976;20.144;2022-11-20T12:17:51;99654.81;;;19.29;19.00
36664;BME280;53333;51.976;20.144;2022-11-20T12:20:32;99657.63;;;18.88;18.49
36664;BME280;53333;51.976;20.144;2022-11-20T12:23:14;99658.63;;;18.47;19.04
36664;BME280;53333;51.976;20.144;2022-11-20T12:25:54;99648.69;;;17.86;19.36
36664;BME280;53333;51.976;20.144;2022-11-20T12:28:43;99652.50;;;16.76;20.40
36664;BME280;53333;51.976;20.144;2022-11-20T12:31:34;99646.84;;;15.43;21.15
36664;BME280;53333;51.976;20.144;2022-11-20T12:37:35;99647.75;;;13.32;23.34
36664;BME280;53333;51.976;20.144;2022-11-20T12:40:24;99652.94;;;13.48;23.29
36664;BME280;53333;51.976;20.144;2022-11-20T12:43:11;99641.16;;;14.02;23.00
36664;BME280;53333;51.976;20.144;2022-11-20T12:46:21;99640.00;;;14.80;22.54
36664;BME280;53333;51.976;20.144;2022-11-20T12:49:14;99637.63;;;15.35;22.14
36664;BME280;53333;51.976;20.144;2022-11-20T12:52:17;99627.97;;;15.90;21.73
36664;BME280;53333;51.976;20.144;2022-11-20T12:55:28;99616.94;;;16.27;21.78
36664;BME280;53333;51.976;20.144;2022-11-20T12:58:12;99621.19;;;16.52;21.28
36664;BME280;53333;51.976;20.144;2022-11-20T13:00:56;99615.69;;;16.43;21.18
36664;BME280;53333;51.976;20.144;2022-11-20T13:03:39;99613.41;;;16.04;21.44
36664;BME280;53333;51.976;20.144;2022-11-20T13:06:18;99600.06;;;15.80;21.73
36664;BME280;53333;51.976;20.144;2022-11-20T13:08:53;99604.06;;;15.63;21.94
36664;BME280;53333;51.976;20.144;2022-11-20T13:11:33;99600.50;;;15.51;22.21
36664;BME280;53333;51.976;20.144;2022-11-20T13:14:29;99591.94;;;15.46;22.50
36664;BME280;53333;51.976;20.144;2022-11-20T13:17:11;99593.59;;;15.24;22.57
36664;BME280;53333;51.976;20.144;2022-11-20T13:19:52;99588.13;;;14.66;22.87
36664;BME280;53333;51.976;20.144;2022-11-20T13:22:28;99599.94;;;13.51;23.94
36664;BME280;53333;51.976;20.144;2022-11-20T13:25:10;99601.75;;;12.30;25.26
36664;BME280;53333;51.976;20.144;2022-11-20T13:27:55;99589.84;;;11.05;26.51
36664;BME280;53333;51.976;20.144;2022-11-20T13:30:30;99596.31;;;10.07;27.69
36664;BME280;53333;51.976;20.144;2022-11-20T13:33:08;99589.72;;;9.14;28.73
36664;BME280;53333;51.976;20.144;2022-11-20T13:35:54;99601.97;;;8.27;29.77
36664;BME280;53333;51.976;20.144;2022-11-20T13:38:42;99603.41;;;7.58;30.68
36664;BME280;53333;51.976;20.144;2022-11-20T13:41:27;99594.44;;;7.01;31.52
36664;BME280;53333;51.976;20.144;2022-11-20T13:44:13;99583.47;;;6.45;32.31
36664;BME280;53333;51.976;20.144;2022-11-20T13:46:47;99588.03;;;5.96;33.02
36664;BME280;53333;51.976;20.144;2022-11-20T13:49:26;99594.69;;;5.60;33.61